createdAt,value
2019-02-16T00:00:17.235Z,6.80
2019-02-16T00:01:22.754Z,8.30
2019-02-16T00:03:21.165Z,6.10
2019-02-16T00:04:26.676Z,6.70
2019-02-16T00:06:25.656Z,7.90
2019-02-16T00:07:30.593Z,8.00
2019-02-16T00:09:28.990Z,7.10
2019-02-16T00:10:34.508Z,6.60
2019-02-16T00:12:32.912Z,6.60
2019-02-16T00:13:38.419Z,5.80
2019-02-16T00:15:36.813Z,6.60
2019-02-16T00:16:42.338Z,8.10
2019-02-16T00:18:40.748Z,8.00
2019-02-16T00:19:46.259Z,7.50
2019-02-16T00:21:44.645Z,5.90
2019-02-16T00:22:50.171Z,7.70
2019-02-16T00:24:48.581Z,8.20
2019-02-16T00:25:54.094Z,9.70
2019-02-16T00:27:52.499Z,8.00
2019-02-16T00:28:58.015Z,5.80
2019-02-16T00:30:56.410Z,6.00
2019-02-16T00:32:01.932Z,6.30
2019-02-16T00:34:00.339Z,8.50
2019-02-16T00:35:05.891Z,8.20
2019-02-16T00:37:04.233Z,9.30
2019-02-16T00:38:09.759Z,10.00
2019-02-16T00:40:08.158Z,9.10
2019-02-16T00:41:13.676Z,7.30
2019-02-16T00:43:12.080Z,6.70
2019-02-16T00:44:17.587Z,9.10
2019-02-16T00:46:15.982Z,7.50
2019-02-16T00:47:21.508Z,7.50
2019-02-16T00:49:19.914Z,7.20
2019-02-16T00:50:25.425Z,8.50
2019-02-16T00:52:23.814Z,8.60
2019-02-16T00:53:29.341Z,9.80
2019-02-16T00:55:27.742Z,7.00
2019-02-16T00:56:33.277Z,6.80
2019-02-16T00:58:31.659Z,7.90
2019-02-16T00:59:37.177Z,6.10
2019-02-16T01:01:35.565Z,7.40
2019-02-16T01:02:41.087Z,7.50
2019-02-16T01:04:52.265Z,6.80
2019-02-16T01:05:57.760Z,8.80
2019-02-16T01:07:56.159Z,7.50
2019-02-16T01:09:01.673Z,8.20
2019-02-16T01:11:00.065Z,6.00
2019-02-16T01:12:06.141Z,6.60
2019-02-16T01:14:03.993Z,7.60
2019-02-16T01:15:09.513Z,10.10
2019-02-16T01:17:07.901Z,13.30
2019-02-16T01:18:13.419Z,8.60
2019-02-16T01:20:11.822Z,6.80
2019-02-16T01:21:22.772Z,6.50
2019-02-16T01:23:15.742Z,7.20
2019-02-16T01:24:21.255Z,7.30
2019-02-16T01:26:19.642Z,7.50
2019-02-16T01:27:25.170Z,6.50
2019-02-16T01:29:23.571Z,8.70
2019-02-16T01:30:29.078Z,5.70
2019-02-16T01:32:27.495Z,9.60
2019-02-16T01:33:33.022Z,9.60
2019-02-16T01:35:31.427Z,7.20
2019-02-16T01:36:36.935Z,11.40
2019-02-16T01:38:35.339Z,7.90
2019-02-16T01:39:40.849Z,5.70
2019-02-16T01:41:39.233Z,8.80
2019-02-16T01:42:44.765Z,8.30
2019-02-16T01:44:43.171Z,9.00
2019-02-16T01:45:48.691Z,7.30
2019-02-16T01:47:47.061Z,11.20
2019-02-16T01:48:52.580Z,10.00
2019-02-16T01:50:50.983Z,7.60
2019-02-16T01:51:56.511Z,7.10
2019-02-16T01:53:54.929Z,7.00
2019-02-16T01:55:00.442Z,8.70
2019-02-16T01:56:58.825Z,7.10
2019-02-16T01:58:04.355Z,7.10
2019-02-16T02:00:02.751Z,7.80
2019-02-16T02:01:08.259Z,7.00
2019-02-16T02:03:06.658Z,8.60
2019-02-16T02:04:12.181Z,7.30
2019-02-16T02:06:10.591Z,5.60
2019-02-16T02:07:16.103Z,6.40
2019-02-16T02:09:14.501Z,7.80
2019-02-16T02:10:20.015Z,8.00
2019-02-16T02:12:18.405Z,7.80
2019-02-16T02:13:23.929Z,8.20
2019-02-16T02:15:22.330Z,6.20
2019-02-16T02:16:27.847Z,6.70
2019-02-16T02:18:26.235Z,5.50
2019-02-16T02:19:31.758Z,5.20
2019-02-16T02:21:30.156Z,7.50
2019-02-16T02:22:35.676Z,9.30
2019-02-16T02:24:34.074Z,8.40
2019-02-16T02:25:39.589Z,5.80
2019-02-16T02:27:37.977Z,8.00
2019-02-16T02:28:43.499Z,7.30
2019-02-16T02:30:41.903Z,7.00
2019-02-16T02:31:47.422Z,6.40
2019-02-16T02:33:45.827Z,10.90
2019-02-16T02:34:51.335Z,6.90
2019-02-16T02:36:49.730Z,6.60
2019-02-16T02:37:55.243Z,6.50
2019-02-16T02:39:53.643Z,7.10
2019-02-16T02:40:59.158Z,6.50
2019-02-16T02:42:57.541Z,7.20
2019-02-16T02:44:03.082Z,7.90
2019-02-16T02:46:01.503Z,7.70
2019-02-16T02:47:07.019Z,7.20
2019-02-16T02:49:05.421Z,7.50
2019-02-16T02:50:10.951Z,11.60
2019-02-16T02:52:09.318Z,7.90
2019-02-16T02:53:14.850Z,7.70
2019-02-16T02:55:13.250Z,10.80
2019-02-16T02:56:18.763Z,7.40
2019-02-16T02:58:17.168Z,7.30
2019-02-16T02:59:23.227Z,6.90
2019-02-16T03:01:21.098Z,6.60
2019-02-16T03:02:26.617Z,7.80
2019-02-16T03:04:25.022Z,7.60
2019-02-16T03:05:30.527Z,7.70
2019-02-16T03:07:28.920Z,6.70
2019-02-16T03:08:34.440Z,6.50
2019-02-16T03:10:32.847Z,8.30
2019-02-16T03:11:38.357Z,7.00
2019-02-16T03:13:36.740Z,8.00
2019-02-16T03:14:42.271Z,8.10
2019-02-16T03:16:40.676Z,9.10
2019-02-16T03:17:46.188Z,8.30
2019-02-16T03:19:44.592Z,7.50
2019-02-16T03:20:50.105Z,5.70
2019-02-16T03:22:48.503Z,6.10
2019-02-16T03:23:54.027Z,7.10
2019-02-16T03:25:52.429Z,5.90
2019-02-16T03:26:57.935Z,7.80
2019-02-16T03:28:56.330Z,8.90
2019-02-16T03:30:01.888Z,9.40
2019-02-16T03:32:00.259Z,9.30
2019-02-16T03:33:05.789Z,6.70
2019-02-16T03:35:04.191Z,8.70
2019-02-16T03:36:09.685Z,5.90
2019-02-16T03:38:08.074Z,8.30
2019-02-16T03:39:13.599Z,7.60
2019-02-16T03:41:12.000Z,6.30
2019-02-16T03:42:17.513Z,8.00
2019-02-16T03:44:15.896Z,7.80
2019-02-16T03:45:21.426Z,6.40
2019-02-16T03:47:19.825Z,58.70
2019-02-16T03:48:25.344Z,38.80
2019-02-16T03:50:23.725Z,15.20
2019-02-16T03:51:29.255Z,11.40
2019-02-16T03:53:27.663Z,8.60
2019-02-16T03:54:33.169Z,7.80
2019-02-16T03:56:31.573Z,8.60
2019-02-16T03:57:37.079Z,8.00
2019-02-16T03:59:35.470Z,7.90
2019-02-16T04:00:40.996Z,8.00
2019-02-16T04:02:39.407Z,8.20
2019-02-16T04:03:44.912Z,7.30
2019-02-16T04:05:43.293Z,9.10
2019-02-16T04:06:48.818Z,9.00
2019-02-16T04:08:47.230Z,7.80
2019-02-16T04:09:52.746Z,6.60
2019-02-16T04:11:51.145Z,7.20
2019-02-16T04:12:56.656Z,8.30
2019-02-16T04:14:55.046Z,6.10
2019-02-16T04:16:00.562Z,6.90
2019-02-16T04:17:58.972Z,8.30
2019-02-16T04:19:04.490Z,6.50
2019-02-16T04:21:02.923Z,7.30
2019-02-16T04:22:08.419Z,11.70
2019-02-16T04:24:06.793Z,11.60
2019-02-16T04:25:12.308Z,11.80
2019-02-16T04:27:10.712Z,9.20
2019-02-16T04:28:16.222Z,11.00
2019-02-16T04:30:14.614Z,8.30
2019-02-16T04:31:20.137Z,8.90
2019-02-16T04:33:18.770Z,8.70
2019-02-16T04:34:24.281Z,6.90
2019-02-16T04:36:22.667Z,10.40
2019-02-16T04:37:28.191Z,8.80
2019-02-16T04:39:26.599Z,10.50
2019-02-16T04:40:32.113Z,12.70
2019-02-16T04:42:30.512Z,12.10
2019-02-16T04:43:36.030Z,7.90
2019-02-16T04:45:34.417Z,6.70
2019-02-16T04:46:39.990Z,6.30
2019-02-16T04:48:38.353Z,9.20
2019-02-16T04:49:43.865Z,10.40
2019-02-16T04:51:42.268Z,7.50
2019-02-16T04:52:47.782Z,8.30
2019-02-16T04:54:46.202Z,7.30
2019-02-16T04:55:51.696Z,9.60
2019-02-16T04:57:50.102Z,9.30
2019-02-16T04:58:55.620Z,8.50
2019-02-16T05:00:54.018Z,10.20
2019-02-16T05:01:59.539Z,8.60
2019-02-16T05:03:57.945Z,8.20
2019-02-16T05:05:03.452Z,8.60
2019-02-16T05:07:01.852Z,8.50
2019-02-16T05:08:07.366Z,8.30
2019-02-16T05:10:05.752Z,7.40
2019-02-16T05:11:11.282Z,7.80
2019-02-16T05:13:09.685Z,8.00
2019-02-16T05:14:15.194Z,8.80
2019-02-16T05:16:13.587Z,7.00
2019-02-16T05:17:19.109Z,9.80
2019-02-16T05:19:17.514Z,23.60
2019-02-16T05:20:23.024Z,18.50
2019-02-16T05:22:21.437Z,12.50
2019-02-16T05:23:26.951Z,8.70
2019-02-16T05:25:25.336Z,10.30
2019-02-16T05:26:30.866Z,11.70
2019-02-16T05:28:29.264Z,7.60
2019-02-16T05:29:34.778Z,7.10
2019-02-16T05:31:33.172Z,6.30
2019-02-16T05:32:38.698Z,7.20
2019-02-16T05:34:37.102Z,9.70
2019-02-16T05:35:42.618Z,10.50
2019-02-16T05:37:41.047Z,7.90
2019-02-16T05:38:46.561Z,8.40
2019-02-16T05:40:44.948Z,7.00
2019-02-16T05:41:50.479Z,6.60
2019-02-16T05:43:49.442Z,9.00
2019-02-16T05:44:54.401Z,6.20
2019-02-16T05:46:52.779Z,6.30
2019-02-16T05:47:58.311Z,7.70
2019-02-16T05:49:56.715Z,8.90
2019-02-16T05:51:02.229Z,7.60
2019-02-16T05:53:00.633Z,6.50
2019-02-16T05:54:06.146Z,10.40
2019-02-16T05:56:04.532Z,7.60
2019-02-16T05:57:10.056Z,8.60
2019-02-16T05:59:08.463Z,5.80
2019-02-16T06:00:13.969Z,7.10
2019-02-16T06:02:12.357Z,6.70
2019-02-16T06:03:17.887Z,8.20
2019-02-16T06:05:16.287Z,6.30
2019-02-16T06:06:21.795Z,36.80
2019-02-16T06:08:20.198Z,73.90
2019-02-16T06:09:25.709Z,59.10
2019-02-16T06:11:24.105Z,21.30
2019-02-16T06:12:29.625Z,14.50
2019-02-16T06:14:28.027Z,10.90
2019-02-16T06:15:33.546Z,9.90
2019-02-16T06:17:31.930Z,12.50
2019-02-16T06:18:37.450Z,11.60
2019-02-16T06:20:35.863Z,8.50
2019-02-16T06:21:41.377Z,13.90
2019-02-16T06:23:39.792Z,12.30
2019-02-16T06:24:45.308Z,9.10
2019-02-16T06:26:43.687Z,10.00
2019-02-16T06:27:49.217Z,8.30
2019-02-16T06:29:47.611Z,8.40
2019-02-16T06:30:53.127Z,8.80
2019-02-16T06:32:52.516Z,10.60
2019-02-16T06:33:58.034Z,8.50
2019-02-16T06:35:56.433Z,6.20
2019-02-16T06:37:01.960Z,9.70
2019-02-16T06:39:00.359Z,7.70
2019-02-16T06:40:05.870Z,10.80
2019-02-16T06:42:04.258Z,9.60
2019-02-16T06:43:09.780Z,11.70
2019-02-16T06:45:08.179Z,9.30
2019-02-16T06:46:13.705Z,10.20
2019-02-16T06:48:12.103Z,8.00
2019-02-16T06:49:17.609Z,9.10
2019-02-16T06:51:15.993Z,7.70
2019-02-16T06:52:21.519Z,6.80
2019-02-16T06:54:19.922Z,6.70
2019-02-16T06:55:25.435Z,7.20
2019-02-16T06:57:23.840Z,7.50
2019-02-16T06:58:29.357Z,6.90
2019-02-16T07:00:27.762Z,6.90
2019-02-16T07:01:33.284Z,6.50
2019-02-16T07:03:32.520Z,6.60
2019-02-16T07:04:38.090Z,4.80
2019-02-16T07:06:36.435Z,8.60
2019-02-16T07:07:41.945Z,13.40
2019-02-16T07:09:40.357Z,7.00
2019-02-16T07:10:45.861Z,8.10
2019-02-16T07:12:44.246Z,9.80
2019-02-16T07:13:49.775Z,9.00
2019-02-16T07:15:48.176Z,10.60
2019-02-16T07:16:53.688Z,9.20
2019-02-16T07:18:52.088Z,11.90
2019-02-16T07:19:57.603Z,8.40
2019-02-16T07:21:55.995Z,6.80
2019-02-16T07:23:01.514Z,6.80
2019-02-16T07:24:59.919Z,7.70
2019-02-16T07:26:05.426Z,7.20
2019-02-16T07:28:03.818Z,6.80
2019-02-16T07:29:09.338Z,8.70
2019-02-16T07:31:07.743Z,14.70
2019-02-16T07:33:44.832Z,29.20
2019-02-16T07:34:50.353Z,49.70
2019-02-16T07:36:48.737Z,13.20
2019-02-16T07:37:54.286Z,11.20
2019-02-16T07:39:52.653Z,10.00
2019-02-16T07:40:58.174Z,11.30
2019-02-16T07:42:56.563Z,7.90
2019-02-16T07:44:02.089Z,6.60
2019-02-16T07:46:00.492Z,5.80
2019-02-16T07:47:06.004Z,6.40
2019-02-16T07:49:04.392Z,7.90
2019-02-16T07:50:09.922Z,6.10
2019-02-16T07:52:08.322Z,7.00
2019-02-16T07:53:13.836Z,6.30
2019-02-16T07:55:12.233Z,6.80
2019-02-16T07:56:17.751Z,6.60
2019-02-16T07:58:16.139Z,7.80
2019-02-16T07:59:21.668Z,7.70
2019-02-16T08:01:20.070Z,8.90
2019-02-16T08:02:25.585Z,12.90
2019-02-16T08:04:23.991Z,9.10
2019-02-16T08:05:29.498Z,10.20
2019-02-16T08:07:27.902Z,12.50
2019-02-16T08:08:33.416Z,12.10
2019-02-16T08:10:31.816Z,7.70
2019-02-16T08:11:37.331Z,8.50
2019-02-16T08:13:35.723Z,9.10
2019-02-16T08:14:41.249Z,7.90
2019-02-16T08:16:39.654Z,10.90
2019-02-16T08:17:45.164Z,9.90
2019-02-16T08:19:43.558Z,13.20
2019-02-16T08:20:49.091Z,9.60
2019-02-16T08:22:47.520Z,9.00
2019-02-16T08:23:53.003Z,8.90
2019-02-16T08:25:51.394Z,8.30
2019-02-16T08:26:56.924Z,9.30
2019-02-16T08:28:55.323Z,6.30
2019-02-16T08:30:00.852Z,8.80
2019-02-16T08:31:59.243Z,7.70
2019-02-16T08:33:04.761Z,8.70
2019-02-16T08:35:03.161Z,11.30
2019-02-16T08:36:08.684Z,8.80
2019-02-16T08:38:07.086Z,6.60
2019-02-16T08:39:12.602Z,9.30
2019-02-16T08:41:10.992Z,8.30
2019-02-16T08:42:16.523Z,8.50
2019-02-16T08:44:14.942Z,8.40
2019-02-16T08:45:20.441Z,8.80
2019-02-16T08:47:18.847Z,6.70
2019-02-16T08:48:24.366Z,9.40
2019-02-16T08:50:22.775Z,8.20
2019-02-16T08:51:28.291Z,7.50
2019-02-16T08:53:26.704Z,6.60
2019-02-16T08:54:32.210Z,8.80
2019-02-16T08:56:30.607Z,6.50
2019-02-16T08:57:36.138Z,5.30
2019-02-16T08:59:34.544Z,20.20
2019-02-16T09:00:40.058Z,8.10
2019-02-16T09:02:38.463Z,9.10
2019-02-16T09:03:43.999Z,10.10
2019-02-16T09:05:42.468Z,6.60
2019-02-16T09:06:47.967Z,9.00
2019-02-16T09:08:46.374Z,13.50
2019-02-16T09:09:51.992Z,11.90
2019-02-16T09:11:50.286Z,13.10
2019-02-16T09:12:55.812Z,10.90
2019-02-16T09:14:54.238Z,13.00
2019-02-16T09:15:59.757Z,14.20
2019-02-16T09:17:58.160Z,10.50
2019-02-16T09:19:03.677Z,8.70
2019-02-16T09:21:02.091Z,11.20
2019-02-16T09:22:07.609Z,7.40
2019-02-16T09:24:06.863Z,7.90
2019-02-16T09:25:12.382Z,10.10
2019-02-16T09:27:10.785Z,9.90
2019-02-16T09:28:16.317Z,9.80
2019-02-16T09:30:14.734Z,7.60
2019-02-16T09:31:20.247Z,9.40
2019-02-16T09:33:18.651Z,10.30
2019-02-16T09:34:24.183Z,9.30
2019-02-16T09:36:22.595Z,9.40
2019-02-16T09:37:28.884Z,8.60
2019-02-16T09:39:27.109Z,9.10
2019-02-16T09:40:32.041Z,12.10
2019-02-16T09:42:30.463Z,13.80
2019-02-16T09:43:35.975Z,11.70
2019-02-16T09:45:34.382Z,10.30
2019-02-16T09:46:39.900Z,11.10
2019-02-16T09:48:38.297Z,9.80
2019-02-16T09:49:43.827Z,10.20
2019-02-16T09:51:42.241Z,10.40
2019-02-16T09:52:47.752Z,9.40
2019-02-16T09:54:46.155Z,9.10
2019-02-16T09:55:51.687Z,8.90
2019-02-16T09:57:50.099Z,9.90
2019-02-16T09:58:55.616Z,13.10
2019-02-16T10:00:54.027Z,10.20
2019-02-16T10:01:59.538Z,11.30
2019-02-16T10:03:57.941Z,8.30
2019-02-16T10:05:03.483Z,8.30
2019-02-16T10:07:01.884Z,10.90
2019-02-16T10:08:07.404Z,11.70
2019-02-16T10:10:06.289Z,10.40
2019-02-16T10:11:11.838Z,11.10
2019-02-16T10:13:10.235Z,9.00
2019-02-16T10:14:15.754Z,11.40
2019-02-16T10:16:14.187Z,7.20
2019-02-16T10:17:19.729Z,9.10
2019-02-16T10:19:18.109Z,11.00
2019-02-16T10:20:23.635Z,12.70
2019-02-16T10:22:22.076Z,9.80
2019-02-16T10:23:27.618Z,9.60
2019-02-16T10:25:25.990Z,13.30
2019-02-16T10:26:31.525Z,12.40
2019-02-16T10:28:29.936Z,9.60
2019-02-16T10:29:35.448Z,11.20
2019-02-16T10:31:33.895Z,10.50
2019-02-16T10:32:39.424Z,10.40
2019-02-16T10:34:37.864Z,37.20
2019-02-16T10:35:43.356Z,42.10
2019-02-16T10:37:41.788Z,13.20
2019-02-16T10:38:47.286Z,13.50
2019-02-16T10:40:45.698Z,10.80
2019-02-16T10:41:51.219Z,12.70
2019-02-16T10:43:49.659Z,11.30
2019-02-16T10:44:55.154Z,11.70
2019-02-16T10:46:53.570Z,13.70
2019-02-16T10:47:59.107Z,10.60
2019-02-16T10:49:57.506Z,10.80
2019-02-16T10:51:03.047Z,8.90
2019-02-16T10:53:01.465Z,10.70
2019-02-16T10:54:07.008Z,10.60
2019-02-16T10:56:06.247Z,17.50
2019-02-16T10:57:11.785Z,11.10
2019-02-16T10:59:10.244Z,12.80
2019-02-16T11:00:15.729Z,13.10
2019-02-16T11:02:14.698Z,14.40
2019-02-16T11:03:19.677Z,15.10
2019-02-16T11:05:18.081Z,13.10
2019-02-16T11:06:23.597Z,14.10
2019-02-16T11:08:22.575Z,10.10
2019-02-16T11:09:27.542Z,15.30
2019-02-16T11:11:25.934Z,17.20
2019-02-16T11:12:32.012Z,14.10
2019-02-16T11:14:29.887Z,14.00
2019-02-16T11:15:35.408Z,14.90
2019-02-16T11:17:33.809Z,16.60
2019-02-16T11:18:39.344Z,17.00
2019-02-16T11:20:37.773Z,12.90
2019-02-16T11:21:43.288Z,15.80
2019-02-16T11:23:41.696Z,19.40
2019-02-16T11:24:47.224Z,20.00
2019-02-16T11:26:45.652Z,16.80
2019-02-16T11:27:51.172Z,14.10
2019-02-16T11:29:49.584Z,14.60
2019-02-16T11:30:55.109Z,14.10
2019-02-16T11:32:53.509Z,16.00
2019-02-16T11:33:59.046Z,17.70
2019-02-16T11:35:57.459Z,15.10
2019-02-16T11:37:02.980Z,16.00
2019-02-16T11:39:01.383Z,16.60
2019-02-16T11:40:06.970Z,17.80
2019-02-16T11:42:05.331Z,16.60
2019-02-16T11:43:10.855Z,17.20
2019-02-16T11:45:09.276Z,21.20
2019-02-16T11:46:14.784Z,18.30
2019-02-16T11:48:13.188Z,17.00
2019-02-16T11:49:18.728Z,14.00
2019-02-16T11:51:17.150Z,19.20
2019-02-16T11:52:22.679Z,14.20
2019-02-16T11:54:21.078Z,15.70
2019-02-16T11:55:26.610Z,16.00
2019-02-16T11:57:25.056Z,16.50
2019-02-16T11:58:30.578Z,15.00
2019-02-16T12:00:28.978Z,17.30
2019-02-16T12:01:34.514Z,15.50
2019-02-16T12:03:32.930Z,16.50
2019-02-16T12:04:38.451Z,15.70
2019-02-16T12:06:36.856Z,16.30
2019-02-16T12:07:42.387Z,16.20
2019-02-16T12:09:40.804Z,17.10
2019-02-16T12:10:46.334Z,16.90
2019-02-16T12:12:44.749Z,16.00
2019-02-16T12:13:50.263Z,18.70
2019-02-16T12:15:48.703Z,15.60
2019-02-16T12:16:54.222Z,15.00
2019-02-16T12:18:52.671Z,17.90
2019-02-16T12:19:58.167Z,15.10
2019-02-16T12:21:57.418Z,17.10
2019-02-16T12:23:02.965Z,16.00
2019-02-16T12:25:05.715Z,16.60
2019-02-16T12:26:06.938Z,17.20
2019-02-16T12:28:05.424Z,16.70
2019-02-16T12:29:10.863Z,19.60
2019-02-16T12:31:09.794Z,15.60
2019-02-16T12:32:15.275Z,16.20
2019-02-16T12:34:13.690Z,16.70
2019-02-16T12:35:19.211Z,14.30
2019-02-16T12:37:17.613Z,18.50
2019-02-16T12:38:23.149Z,17.60
2019-02-16T12:40:21.565Z,18.30
2019-02-16T12:41:27.083Z,18.80
2019-02-16T12:43:25.486Z,16.60
2019-02-16T12:44:31.022Z,18.20
2019-02-16T12:46:29.436Z,17.10
2019-02-16T12:47:34.955Z,16.90
2019-02-16T12:49:33.377Z,17.60
2019-02-16T12:50:38.899Z,17.20
2019-02-16T12:52:37.305Z,18.00
2019-02-16T12:53:42.842Z,19.30
2019-02-16T12:55:41.261Z,18.20
2019-02-16T12:56:46.777Z,19.20
2019-02-16T12:58:45.183Z,20.00
2019-02-16T12:59:50.718Z,18.90
2019-02-16T13:01:49.140Z,15.90
2019-02-16T13:02:54.657Z,18.90
2019-02-16T13:04:53.086Z,18.40
2019-02-16T13:05:58.596Z,16.20
2019-02-16T13:07:56.997Z,16.60
2019-02-16T13:09:02.546Z,14.40
2019-02-16T13:11:00.962Z,13.70
2019-02-16T13:12:06.467Z,15.50
2019-02-16T13:14:04.875Z,18.10
2019-02-16T13:15:10.413Z,19.80
2019-02-16T13:17:08.825Z,17.30
2019-02-16T13:18:14.351Z,16.10
2019-02-16T13:20:12.755Z,18.90
2019-02-16T13:21:18.293Z,20.90
2019-02-16T13:23:16.705Z,20.80
2019-02-16T13:24:22.233Z,21.40
2019-02-16T13:26:20.639Z,20.60
2019-02-16T13:27:26.172Z,14.80
2019-02-16T13:29:24.590Z,22.40
2019-02-16T13:30:30.110Z,19.30
2019-02-16T13:32:28.520Z,19.70
2019-02-16T13:33:34.068Z,17.20
2019-02-16T13:35:32.475Z,14.80
2019-02-16T13:36:37.991Z,20.80
2019-02-16T13:38:36.400Z,15.80
2019-02-16T13:39:41.932Z,18.80
2019-02-16T13:41:40.351Z,15.90
2019-02-16T13:42:45.872Z,19.60
2019-02-16T13:44:44.311Z,20.20
2019-02-16T13:45:49.832Z,16.80
2019-02-16T13:47:48.225Z,15.00
2019-02-16T13:48:53.758Z,15.40
2019-02-16T13:50:52.181Z,16.00
2019-02-16T13:51:57.696Z,17.10
2019-02-16T13:53:57.012Z,17.00
2019-02-16T13:55:02.554Z,16.50
2019-02-16T13:57:01.824Z,15.50
2019-02-16T13:58:07.346Z,13.40
2019-02-16T14:00:05.791Z,17.30
2019-02-16T14:01:11.424Z,17.00
2019-02-16T14:03:09.752Z,14.20
2019-02-16T14:04:15.264Z,17.60
2019-02-16T14:06:13.700Z,17.70
2019-02-16T14:07:19.207Z,18.20
2019-02-16T14:09:17.610Z,19.30
2019-02-16T14:10:23.146Z,21.50
2019-02-16T14:12:21.583Z,21.60
2019-02-16T14:13:27.088Z,19.30
2019-02-16T14:15:25.489Z,17.70
2019-02-16T14:16:31.025Z,20.40
2019-02-16T14:18:29.449Z,18.40
2019-02-16T14:19:34.966Z,17.40
2019-02-16T14:21:33.373Z,15.10
2019-02-16T14:22:38.906Z,17.70
2019-02-16T14:24:37.325Z,19.50
2019-02-16T14:25:45.513Z,18.00
2019-02-16T14:27:41.268Z,15.20
2019-02-16T14:28:48.479Z,20.20
2019-02-16T14:30:45.190Z,16.60
2019-02-16T14:31:50.726Z,18.90
2019-02-16T14:33:49.142Z,15.70
2019-02-16T14:34:54.659Z,19.00
2019-02-16T14:36:53.061Z,14.70
2019-02-16T14:37:58.596Z,20.00
2019-02-16T14:39:57.018Z,15.70
2019-02-16T14:41:02.541Z,17.80
2019-02-16T14:43:01.700Z,17.70
2019-02-16T14:44:06.472Z,18.40
2019-02-16T14:46:04.884Z,18.10
2019-02-16T14:47:10.408Z,20.10
2019-02-16T14:49:08.834Z,11.80
2019-02-16T14:50:14.346Z,18.70
2019-02-16T14:52:12.745Z,13.90
2019-02-16T14:53:18.278Z,17.40
2019-02-16T14:55:16.703Z,14.90
2019-02-16T14:56:22.217Z,14.80
2019-02-16T14:58:20.615Z,15.30
2019-02-16T14:59:26.151Z,16.60
2019-02-16T15:01:24.563Z,18.40
2019-02-16T15:02:30.085Z,13.10
2019-02-16T15:04:28.488Z,15.10
2019-02-16T15:05:34.024Z,12.10
2019-02-16T15:07:32.449Z,14.00
2019-02-16T15:08:37.976Z,15.70
2019-02-16T15:10:36.371Z,17.80
2019-02-16T15:11:41.908Z,13.00
2019-02-16T15:13:40.341Z,14.40
2019-02-16T15:14:45.842Z,17.90
2019-02-16T15:16:44.245Z,16.50
2019-02-16T15:17:49.781Z,15.80
2019-02-16T15:19:48.212Z,16.60
2019-02-16T15:20:53.725Z,15.00
2019-02-16T15:22:52.121Z,16.70
2019-02-16T15:23:57.655Z,17.40
2019-02-16T15:26:01.182Z,16.30
2019-02-16T15:27:01.592Z,18.10
2019-02-16T15:28:59.995Z,14.90
2019-02-16T15:30:05.525Z,14.80
2019-02-16T15:32:03.935Z,18.10
2019-02-16T15:33:09.459Z,13.40
2019-02-16T15:35:07.864Z,17.00
2019-02-16T15:36:13.392Z,16.80
2019-02-16T15:38:11.811Z,17.20
2019-02-16T15:39:17.326Z,13.40
2019-02-16T15:41:15.755Z,17.10
2019-02-16T15:42:21.265Z,18.40
2019-02-16T15:44:19.663Z,16.60
2019-02-16T15:45:25.201Z,14.70
2019-02-16T15:47:23.644Z,18.40
2019-02-16T15:48:29.137Z,15.20
2019-02-16T15:50:27.567Z,14.40
2019-02-16T15:51:33.076Z,14.40
2019-02-16T15:53:31.526Z,19.60
2019-02-16T15:54:37.040Z,18.10
2019-02-16T15:56:35.461Z,18.90
2019-02-16T15:57:40.989Z,17.00
2019-02-16T15:59:39.408Z,14.80
2019-02-16T16:00:44.921Z,14.10
2019-02-16T16:02:44.189Z,17.10
2019-02-16T16:03:49.730Z,16.50
2019-02-16T16:05:48.185Z,15.70
2019-02-16T16:06:53.696Z,15.00
2019-02-16T16:08:52.132Z,18.70
2019-02-16T16:09:57.631Z,16.50
2019-02-16T16:11:56.049Z,16.10
2019-02-16T16:13:01.586Z,15.80
2019-02-16T16:14:59.986Z,20.30
2019-02-16T16:16:05.501Z,20.50
2019-02-16T16:18:03.933Z,19.70
2019-02-16T16:19:09.500Z,20.90
2019-02-16T16:21:07.886Z,18.60
2019-02-16T16:22:13.392Z,16.90
2019-02-16T16:24:12.083Z,18.00
2019-02-16T16:25:17.572Z,18.90
2019-02-16T16:27:15.976Z,19.40
2019-02-16T16:28:21.523Z,21.50
2019-02-16T16:30:19.944Z,17.60
2019-02-16T16:31:25.437Z,17.50
2019-02-16T16:33:23.842Z,16.60
2019-02-16T16:34:29.362Z,18.20
2019-02-16T16:36:28.866Z,16.60
2019-02-16T16:37:33.841Z,20.90
2019-02-16T16:39:32.571Z,21.00
2019-02-16T16:40:38.082Z,23.00
2019-02-16T16:42:36.480Z,22.60
2019-02-16T16:43:42.010Z,18.60
2019-02-16T16:45:40.430Z,18.30
2019-02-16T16:46:45.953Z,19.00
2019-02-16T16:48:44.351Z,18.70
2019-02-16T16:49:49.878Z,17.90
2019-02-16T16:51:48.309Z,15.70
2019-02-16T16:52:53.824Z,17.20
2019-02-16T16:54:52.244Z,17.30
2019-02-16T16:55:57.753Z,16.70
2019-02-16T16:57:56.153Z,17.10
2019-02-16T16:59:01.680Z,17.30
2019-02-16T17:01:00.095Z,18.80
2019-02-16T17:02:05.610Z,17.60
2019-02-16T17:04:04.006Z,20.80
2019-02-16T17:05:09.539Z,16.00
2019-02-16T17:07:08.536Z,18.40
2019-02-16T17:08:13.467Z,17.40
2019-02-16T17:10:11.862Z,18.90
2019-02-16T17:11:17.398Z,21.20
2019-02-16T17:13:15.803Z,18.80
2019-02-16T17:14:21.322Z,24.50
2019-02-16T17:16:19.740Z,20.90
2019-02-16T17:17:25.251Z,20.90
2019-02-16T17:19:23.646Z,19.90
2019-02-16T17:20:29.174Z,20.60
2019-02-16T17:22:28.447Z,18.00
2019-02-16T17:23:33.956Z,19.60
2019-02-16T17:25:32.366Z,18.50
2019-02-16T17:26:38.234Z,18.70
2019-02-16T17:28:36.298Z,22.30
2019-02-16T17:29:41.810Z,16.60
2019-02-16T17:31:40.214Z,21.70
2019-02-16T17:32:45.744Z,21.50
2019-02-16T17:34:44.150Z,19.60
2019-02-16T17:35:49.666Z,23.80
2019-02-16T17:37:48.081Z,25.50
2019-02-16T17:38:53.598Z,24.60
2019-02-16T17:40:51.993Z,20.10
2019-02-16T17:41:57.523Z,23.20
2019-02-16T17:43:55.933Z,19.60
2019-02-16T17:45:01.455Z,15.60
2019-02-16T17:46:59.846Z,28.10
2019-02-16T17:48:05.377Z,25.70
2019-02-16T17:50:03.791Z,21.10
2019-02-16T17:51:09.301Z,21.80
2019-02-16T17:53:07.773Z,22.50
2019-02-16T17:54:13.230Z,23.40
2019-02-16T17:56:11.628Z,31.10
2019-02-16T17:57:17.156Z,27.50
2019-02-16T17:59:15.564Z,35.50
2019-02-16T18:00:21.081Z,38.80
2019-02-16T18:02:19.478Z,39.20
2019-02-16T18:03:25.008Z,36.80
2019-02-16T18:05:23.419Z,31.70
2019-02-16T18:06:28.936Z,26.60
2019-02-16T18:08:27.338Z,27.00
2019-02-16T18:09:32.867Z,28.80
2019-02-16T18:11:31.283Z,18.90
2019-02-16T18:12:36.797Z,23.00
2019-02-16T18:14:35.204Z,20.10
2019-02-16T18:15:40.714Z,22.70
2019-02-16T18:17:39.107Z,21.50
2019-02-16T18:18:44.643Z,21.30
2019-02-16T18:20:43.050Z,32.60
2019-02-16T18:21:48.568Z,32.50
2019-02-16T18:23:47.057Z,27.40
2019-02-16T18:24:52.485Z,26.30
2019-02-16T18:26:56.584Z,27.30
2019-02-16T18:27:56.420Z,26.90
2019-02-16T18:29:54.833Z,32.10
2019-02-16T18:31:00.361Z,26.10
2019-02-16T18:32:58.743Z,19.00
2019-02-16T18:34:04.275Z,23.80
2019-02-16T18:36:02.673Z,20.30
2019-02-16T18:37:08.189Z,23.40
2019-02-16T18:39:06.579Z,20.50
2019-02-16T18:40:12.145Z,23.90
2019-02-16T18:42:10.536Z,22.60
2019-02-16T18:43:16.034Z,22.40
2019-02-16T18:45:14.442Z,22.60
2019-02-16T18:46:19.957Z,21.90
2019-02-16T18:48:18.364Z,23.00
2019-02-16T18:49:23.891Z,25.10
2019-02-16T18:51:22.298Z,23.60
2019-02-16T18:52:27.798Z,19.60
2019-02-16T18:54:26.205Z,27.00
2019-02-16T18:55:31.721Z,27.50
2019-02-16T18:57:30.147Z,22.70
2019-02-16T18:58:35.660Z,21.00
2019-02-16T19:00:34.034Z,19.60
2019-02-16T19:01:39.562Z,24.70
2019-02-16T19:03:37.978Z,23.70
2019-02-16T19:04:43.491Z,22.20
2019-02-16T19:06:41.880Z,21.40
2019-02-16T19:07:47.963Z,22.40
2019-02-16T19:09:45.816Z,23.60
2019-02-16T19:10:51.363Z,23.10
2019-02-16T19:12:49.740Z,26.20
2019-02-16T19:13:55.256Z,24.90
2019-02-16T19:15:53.653Z,27.50
2019-02-16T19:16:59.213Z,28.60
2019-02-16T19:18:57.593Z,33.70
2019-02-16T19:20:03.104Z,38.70
2019-02-16T19:22:01.493Z,34.40
2019-02-16T19:23:07.025Z,30.00
2019-02-16T19:25:05.443Z,31.00
2019-02-16T19:26:10.939Z,40.80
2019-02-16T19:28:09.348Z,56.40
2019-02-16T19:29:14.869Z,63.50
2019-02-16T19:31:13.256Z,66.40
2019-02-16T19:32:18.786Z,47.30
2019-02-16T19:34:17.189Z,41.90
2019-02-16T19:35:22.705Z,41.20
2019-02-16T19:37:21.098Z,33.70
2019-02-16T19:38:26.625Z,33.30
2019-02-16T19:40:25.043Z,39.00
2019-02-16T19:41:30.540Z,35.00
2019-02-16T19:43:28.937Z,32.90
2019-02-16T19:44:34.554Z,31.60
2019-02-16T19:46:32.886Z,31.20
2019-02-16T19:47:38.388Z,33.70
2019-02-16T19:49:36.792Z,31.80
2019-02-16T19:50:42.308Z,30.60
2019-02-16T19:52:40.702Z,24.30
2019-02-16T19:53:46.230Z,27.90
2019-02-16T19:55:44.634Z,34.30
2019-02-16T19:56:50.153Z,32.80
2019-02-16T19:58:48.545Z,29.90
2019-02-16T19:59:54.073Z,31.50